createdAt,value
2022-09-27T00:02:25.438Z,4.57
2022-09-27T00:04:55.820Z,4.95
2022-09-27T00:07:24.368Z,5.00
2022-09-27T00:09:52.972Z,4.35
2022-09-27T00:12:21.488Z,5.50
2022-09-27T00:14:52.278Z,4.63
2022-09-27T00:17:23.024Z,5.05
2022-09-27T00:19:52.529Z,4.65
2022-09-27T00:22:24.436Z,4.78
2022-09-27T00:24:53.054Z,4.88
2022-09-27T00:27:22.511Z,4.85
2022-09-27T00:29:53.394Z,4.95
2022-09-27T00:32:23.362Z,5.30
2022-09-27T00:34:54.315Z,4.82
2022-09-27T00:37:26.160Z,5.47
2022-09-27T00:39:55.840Z,4.72
2022-09-27T00:42:25.061Z,4.57
2022-09-27T00:45:06.571Z,5.40
2022-09-27T00:47:42.592Z,5.10
2022-09-27T00:50:25.934Z,4.97
2022-09-27T00:53:06.048Z,5.28
2022-09-27T00:55:38.405Z,6.25
2022-09-27T00:58:10.380Z,4.80
2022-09-27T01:00:44.017Z,5.38
2022-09-27T01:03:18.246Z,5.45
2022-09-27T01:05:48.255Z,5.20
2022-09-27T01:08:20.152Z,5.80
2022-09-27T01:10:59.989Z,5.93
2022-09-27T01:13:37.076Z,5.40
2022-09-27T01:16:15.150Z,5.63
2022-09-27T01:18:59.477Z,6.25
2022-09-27T01:21:46.622Z,5.30
2022-09-27T01:24:58.739Z,5.53
2022-09-27T01:28:06.882Z,5.68
2022-09-27T01:30:44.522Z,5.35
2022-09-27T01:33:43.169Z,6.10
2022-09-27T01:36:22.968Z,5.22
2022-09-27T01:39:08.376Z,5.30
2022-09-27T01:41:45.379Z,6.30
2022-09-27T01:44:19.195Z,5.55
2022-09-27T01:46:53.617Z,5.13
2022-09-27T01:49:29.979Z,5.47
2022-09-27T01:52:02.415Z,5.00
2022-09-27T01:54:37.351Z,6.20
2022-09-27T01:57:08.646Z,5.43
2022-09-27T01:59:45.723Z,5.70
2022-09-27T02:02:19.222Z,6.15
2022-09-27T02:04:49.621Z,5.45
2022-09-27T02:07:24.194Z,5.65
2022-09-27T02:09:58.303Z,6.15
2022-09-27T02:12:31.288Z,5.38
2022-09-27T02:15:04.420Z,4.38
2022-09-27T02:17:43.586Z,5.47
2022-09-27T02:20:20.578Z,5.43
2022-09-27T02:22:56.599Z,6.38
2022-09-27T02:25:30.305Z,5.55
2022-09-27T02:28:08.132Z,5.53
2022-09-27T02:30:36.811Z,5.90
2022-09-27T02:33:08.020Z,6.25
2022-09-27T02:35:38.258Z,6.20
2022-09-27T02:38:09.413Z,6.28
2022-09-27T02:40:46.041Z,6.68
2022-09-27T02:43:18.246Z,6.88
2022-09-27T02:46:08.036Z,6.65
2022-09-27T02:48:50.997Z,5.63
2022-09-27T02:51:35.777Z,6.68
2022-09-27T02:54:16.542Z,5.85
2022-09-27T02:56:55.327Z,5.75
2022-09-27T02:59:34.663Z,5.55
2022-09-27T03:02:13.761Z,6.03
2022-09-27T03:04:55.497Z,6.00
2022-09-27T03:07:25.213Z,5.95
2022-09-27T03:09:59.946Z,6.13
2022-09-27T03:12:29.846Z,5.72
2022-09-27T03:15:00.925Z,5.55
2022-09-27T03:17:29.665Z,5.20
2022-09-27T03:19:59.592Z,5.40
2022-09-27T03:22:29.437Z,5.75
2022-09-27T03:24:58.997Z,5.85
2022-09-27T03:27:27.547Z,5.47
2022-09-27T03:29:58.824Z,5.65
2022-09-27T03:32:34.961Z,6.22
2022-09-27T03:35:07.179Z,6.13
2022-09-27T03:37:36.065Z,4.93
2022-09-27T03:40:04.844Z,5.38
2022-09-27T03:42:33.276Z,4.60
2022-09-27T03:45:03.020Z,5.97
2022-09-27T03:47:31.579Z,5.47
2022-09-27T03:50:00.124Z,5.38
2022-09-27T03:52:32.843Z,5.68
2022-09-27T03:55:03.840Z,5.60
2022-09-27T03:57:37.230Z,5.75
2022-09-27T04:00:06.055Z,5.15
2022-09-27T04:02:34.795Z,6.00
2022-09-27T04:05:03.513Z,5.50
2022-09-27T04:07:33.739Z,5.82
2022-09-27T04:10:10.788Z,5.40
2022-09-27T04:12:42.163Z,5.75
2022-09-27T04:15:12.881Z,5.70
2022-09-27T04:17:44.147Z,5.05
2022-09-27T04:20:13.221Z,5.70
2022-09-27T04:22:45.917Z,6.18
2022-09-27T04:25:19.198Z,6.10
2022-09-27T04:27:48.905Z,5.20
2022-09-27T04:30:18.791Z,5.47
2022-09-27T04:32:50.333Z,6.00
2022-09-27T04:35:36.369Z,5.82
2022-09-27T04:38:07.872Z,5.93
2022-09-27T04:40:38.012Z,6.43
2022-09-27T04:43:06.625Z,5.60
2022-09-27T04:45:35.674Z,5.03
2022-09-27T04:48:03.986Z,6.30
2022-09-27T04:50:35.945Z,5.13
2022-09-27T04:53:07.268Z,5.75
2022-09-27T04:55:36.765Z,5.53
2022-09-27T04:58:05.878Z,4.90
2022-09-27T05:00:35.476Z,6.00
2022-09-27T05:03:06.299Z,4.88
2022-09-27T05:05:34.609Z,5.40
2022-09-27T05:08:03.512Z,5.30
2022-09-27T05:10:33.331Z,5.60
2022-09-27T05:13:01.689Z,5.18
2022-09-27T05:15:30.561Z,5.82
2022-09-27T05:17:59.994Z,6.05
2022-09-27T05:20:30.043Z,5.78
2022-09-27T05:22:59.831Z,4.78
2022-09-27T05:25:28.564Z,5.70
2022-09-27T05:27:59.241Z,5.72
2022-09-27T05:30:30.857Z,5.95
2022-09-27T05:32:59.558Z,5.43
2022-09-27T05:35:28.267Z,5.47
2022-09-27T05:38:00.288Z,6.05
2022-09-27T05:40:40.964Z,5.05
2022-09-27T05:43:12.017Z,5.90
2022-09-27T05:45:44.400Z,5.35
2022-09-27T05:48:14.860Z,5.43
2022-09-27T05:50:43.485Z,5.90
2022-09-27T05:53:13.704Z,5.60
2022-09-27T05:55:50.099Z,5.85
2022-09-27T05:58:21.165Z,6.18
2022-09-27T06:00:51.684Z,6.20
2022-09-27T06:03:21.260Z,6.18
2022-09-27T06:05:57.025Z,6.07
2022-09-27T06:08:25.486Z,5.82
2022-09-27T06:11:03.699Z,6.03
2022-09-27T06:13:36.551Z,5.68
2022-09-27T06:16:05.884Z,5.78
2022-09-27T06:18:36.912Z,6.40
2022-09-27T06:21:06.986Z,6.00
2022-09-27T06:23:37.664Z,6.00
2022-09-27T06:26:08.517Z,5.50
2022-09-27T06:28:39.118Z,5.25
2022-09-27T06:31:11.994Z,5.25
2022-09-27T06:33:49.513Z,6.47
2022-09-27T06:36:18.515Z,6.10
2022-09-27T06:38:48.547Z,5.82
2022-09-27T06:41:18.119Z,5.35
2022-09-27T06:43:50.050Z,5.82
2022-09-27T06:46:18.453Z,5.85
2022-09-27T06:48:48.528Z,6.93
2022-09-27T06:51:17.198Z,5.70
2022-09-27T06:53:45.738Z,5.97
2022-09-27T06:56:15.306Z,6.43
2022-09-27T06:59:00.900Z,5.72
2022-09-27T07:01:34.094Z,5.57
2022-09-27T07:04:07.842Z,5.25
2022-09-27T07:06:38.903Z,5.78
2022-09-27T07:09:07.533Z,5.47
2022-09-27T07:11:37.965Z,6.55
2022-09-27T07:14:11.059Z,13.60
2022-09-27T07:16:45.317Z,5.40
2022-09-27T07:19:21.438Z,5.78
2022-09-27T07:21:52.940Z,6.30
2022-09-27T07:24:21.436Z,6.25
2022-09-27T07:26:52.171Z,5.80
2022-09-27T07:29:21.737Z,6.75
2022-09-27T07:31:52.737Z,5.38
2022-09-27T07:34:21.188Z,5.35
2022-09-27T07:36:55.359Z,5.53
2022-09-27T07:39:24.588Z,5.75
2022-09-27T07:41:53.300Z,6.93
2022-09-27T07:44:21.977Z,5.43
2022-09-27T07:46:52.041Z,5.60
2022-09-27T07:49:22.089Z,5.90
2022-09-27T07:51:51.614Z,5.82
2022-09-27T07:54:21.329Z,7.00
2022-09-27T07:56:52.170Z,8.38
2022-09-27T07:59:20.914Z,6.85
2022-09-27T08:02:07.349Z,6.13
2022-09-27T08:04:35.835Z,5.85
2022-09-27T08:07:04.260Z,5.90
2022-09-27T08:09:33.057Z,6.20
2022-09-27T08:12:01.658Z,6.40
2022-09-27T08:14:30.385Z,5.40
2022-09-27T08:16:59.185Z,5.72
2022-09-27T08:19:36.600Z,5.32
2022-09-27T08:22:05.361Z,6.13
2022-09-27T08:24:33.811Z,6.20
2022-09-27T08:27:07.026Z,5.70
2022-09-27T08:29:42.131Z,6.20
2022-09-27T08:32:12.654Z,5.82
2022-09-27T08:34:44.121Z,6.25
2022-09-27T08:37:14.588Z,6.38
2022-09-27T08:39:47.969Z,6.05
2022-09-27T08:42:29.505Z,6.13
2022-09-27T08:45:05.830Z,5.60
2022-09-27T08:47:40.525Z,5.20
2022-09-27T08:50:28.119Z,6.40
2022-09-27T08:53:01.880Z,6.38
2022-09-27T08:55:37.924Z,5.88
2022-09-27T08:58:15.004Z,5.50
2022-09-27T09:00:43.671Z,5.65
2022-09-27T09:03:23.138Z,6.78
2022-09-27T09:06:08.649Z,6.40
2022-09-27T09:08:51.081Z,5.30
2022-09-27T09:11:51.333Z,5.93
2022-09-27T09:14:56.568Z,5.10
2022-09-27T09:17:37.876Z,5.75
2022-09-27T09:20:22.077Z,5.47
2022-09-27T09:23:06.799Z,5.55
2022-09-27T09:25:44.512Z,6.03
2022-09-27T09:28:30.433Z,5.97
2022-09-27T09:31:07.579Z,5.50
2022-09-27T09:33:40.660Z,5.60
2022-09-27T09:36:20.340Z,5.95
2022-09-27T09:38:57.685Z,6.25
2022-09-27T09:41:32.165Z,6.03
2022-09-27T09:44:06.301Z,5.90
2022-09-27T09:46:45.384Z,6.20
2022-09-27T09:49:20.253Z,5.82
2022-09-27T09:51:52.801Z,5.38
2022-09-27T09:54:28.872Z,5.55
2022-09-27T09:57:05.152Z,5.75
2022-09-27T09:59:40.315Z,5.57
2022-09-27T10:02:24.735Z,5.70
2022-09-27T10:04:53.376Z,4.82
2022-09-27T10:07:25.658Z,5.47
2022-09-27T10:10:01.104Z,5.72
2022-09-27T10:12:30.858Z,5.15
2022-09-27T10:15:02.982Z,5.07
2022-09-27T10:17:40.641Z,5.80
2022-09-27T10:20:17.119Z,6.18
2022-09-27T10:22:54.806Z,5.40
2022-09-27T10:25:25.819Z,5.32
2022-09-27T10:27:57.177Z,5.35
2022-09-27T10:30:29.557Z,5.45
2022-09-27T10:33:00.941Z,5.35
2022-09-27T10:35:38.199Z,7.03
2022-09-27T10:38:27.306Z,6.32
2022-09-27T10:41:00.129Z,5.95
2022-09-27T10:43:33.782Z,6.18
2022-09-27T10:46:17.743Z,5.70
2022-09-27T10:48:46.400Z,5.57
2022-09-27T10:51:28.640Z,5.57
2022-09-27T10:54:00.824Z,5.60
2022-09-27T10:56:33.388Z,6.18
2022-09-27T10:59:04.297Z,5.57
2022-09-27T11:01:42.611Z,6.60
2022-09-27T11:04:21.609Z,5.25
2022-09-27T11:06:50.723Z,5.97
2022-09-27T11:09:24.479Z,5.78
2022-09-27T11:12:10.433Z,4.57
2022-09-27T11:14:41.674Z,4.57
2022-09-27T11:17:22.269Z,4.22
2022-09-27T11:20:29.116Z,4.80
2022-09-27T11:23:30.009Z,5.15
2022-09-27T11:26:11.447Z,4.85
2022-09-27T11:28:54.090Z,5.63
2022-09-27T11:31:36.682Z,4.47
2022-09-27T11:34:37.831Z,3.75
2022-09-27T11:37:18.458Z,4.68
2022-09-27T11:40:03.006Z,4.88
2022-09-27T11:43:00.055Z,4.90
2022-09-27T11:46:14.219Z,4.68
2022-09-27T11:48:56.553Z,4.55
2022-09-27T11:51:37.593Z,4.78
2022-09-27T11:54:31.178Z,4.32
2022-09-27T11:57:05.797Z,4.25
2022-09-27T12:00:09.174Z,4.50
2022-09-27T12:02:58.601Z,4.75
2022-09-27T12:05:38.056Z,4.30
2022-09-27T12:08:22.885Z,4.82
2022-09-27T12:10:56.423Z,4.35
2022-09-27T12:13:36.097Z,4.43
2022-09-27T12:16:05.966Z,4.30
2022-09-27T12:18:41.565Z,3.88
2022-09-27T12:21:13.288Z,4.00
2022-09-27T12:23:45.962Z,3.95
2022-09-27T12:26:21.750Z,3.55
2022-09-27T12:28:54.359Z,4.18
2022-09-27T12:31:41.186Z,4.45
2022-09-27T12:34:20.547Z,3.97
2022-09-27T12:36:58.186Z,4.60
2022-09-27T12:39:35.161Z,4.53
2022-09-27T12:45:53.692Z,4.13
2022-09-27T12:48:41.100Z,3.80
2022-09-27T12:51:46.510Z,3.47
2022-09-27T12:54:40.654Z,4.78
2022-09-27T12:57:39.751Z,4.53
2022-09-27T13:00:34.443Z,4.47
2022-09-27T13:04:08.234Z,3.80
2022-09-27T13:10:08.473Z,4.20
2022-09-27T13:12:47.791Z,4.68
2022-09-27T13:15:23.113Z,4.68
2022-09-27T13:17:57.073Z,4.20
2022-09-27T13:20:51.357Z,4.38
2022-09-27T13:24:02.518Z,3.75
2022-09-27T13:26:52.346Z,3.92
2022-09-27T13:29:37.280Z,3.78
2022-09-27T13:32:20.948Z,3.65
2022-09-27T13:34:55.055Z,4.45
2022-09-27T13:37:54.860Z,4.20
2022-09-27T13:40:50.242Z,3.65
2022-09-27T13:43:49.269Z,4.07
2022-09-27T13:46:22.122Z,3.50
2022-09-27T13:48:58.330Z,3.67
2022-09-27T13:51:38.781Z,3.65
2022-09-27T13:54:12.809Z,4.40
2022-09-27T13:56:58.551Z,3.95
2022-09-27T13:59:34.914Z,3.70
2022-09-27T14:02:29.375Z,3.83
2022-09-27T14:05:04.822Z,4.00
2022-09-27T14:07:53.718Z,3.90
2022-09-27T14:10:24.607Z,4.15
2022-09-27T14:13:04.897Z,3.33
2022-09-27T14:15:34.517Z,3.92
2022-09-27T14:18:26.696Z,4.03
2022-09-27T14:20:55.891Z,3.75
2022-09-27T14:23:58.274Z,3.20
2022-09-27T14:26:33.316Z,3.92
2022-09-27T14:29:31.602Z,3.60
2022-09-27T14:32:20.547Z,4.00
2022-09-27T14:35:07.974Z,3.60
2022-09-27T14:37:38.904Z,3.95
2022-09-27T14:40:24.198Z,3.95
2022-09-27T14:43:05.517Z,4.45
2022-09-27T14:46:04.598Z,3.33
2022-09-27T14:48:36.918Z,3.10
2022-09-27T14:51:20.097Z,3.15
2022-09-27T14:53:50.565Z,3.30
2022-09-27T14:56:23.078Z,3.35
2022-09-27T14:58:57.235Z,3.33
2022-09-27T15:01:27.889Z,3.70
2022-09-27T15:04:08.675Z,4.05
2022-09-27T15:06:55.921Z,3.53
2022-09-27T15:09:32.355Z,3.30
2022-09-27T15:12:09.291Z,3.50
2022-09-27T15:14:41.525Z,3.08
2022-09-27T15:17:21.355Z,3.58
2022-09-27T15:20:25.225Z,3.58
2022-09-27T15:22:53.836Z,3.67
2022-09-27T15:25:34.571Z,3.67
2022-09-27T15:28:06.198Z,3.08
2022-09-27T15:30:39.983Z,3.65
2022-09-27T15:33:22.391Z,5.03
2022-09-27T15:35:53.026Z,3.50
2022-09-27T15:38:31.589Z,3.30
2022-09-27T15:41:09.677Z,3.47
2022-09-27T15:43:41.802Z,3.10
2022-09-27T15:46:39.093Z,4.70
2022-09-27T15:49:34.856Z,3.92
2022-09-27T15:52:05.490Z,3.55
2022-09-27T15:54:35.942Z,4.60
2022-09-27T15:57:06.871Z,4.57
2022-09-27T15:59:37.172Z,4.72
2022-09-27T16:02:19.721Z,4.07
2022-09-27T16:04:49.689Z,4.28
2022-09-27T16:07:17.983Z,3.70
2022-09-27T16:09:49.639Z,4.63
2022-09-27T16:12:18.266Z,3.58
2022-09-27T16:14:46.787Z,3.67
2022-09-27T16:17:16.150Z,3.67
2022-09-27T16:19:44.795Z,4.22
2022-09-27T16:22:14.963Z,4.40
2022-09-27T16:24:43.276Z,4.60
2022-09-27T16:27:12.019Z,4.43
2022-09-27T16:29:44.362Z,4.05
2022-09-27T16:32:12.955Z,3.40
2022-09-27T16:34:41.573Z,4.05
2022-09-27T16:37:10.508Z,3.45
2022-09-27T16:39:40.975Z,3.45
2022-09-27T16:42:09.907Z,3.55
2022-09-27T16:44:38.294Z,4.15
2022-09-27T16:47:07.357Z,3.40
2022-09-27T16:49:53.706Z,3.40
2022-09-27T16:52:22.003Z,5.22
2022-09-27T16:54:52.132Z,6.20
2022-09-27T16:57:20.681Z,5.63
2022-09-27T16:59:50.048Z,4.50
2022-09-27T17:02:19.967Z,3.85
2022-09-27T17:04:48.566Z,3.95
2022-09-27T17:07:17.113Z,4.10
2022-09-27T17:09:45.763Z,3.35
2022-09-27T17:12:16.711Z,3.72
2022-09-27T17:14:45.538Z,4.40
2022-09-27T17:17:14.087Z,6.25
2022-09-27T17:19:42.968Z,4.55
2022-09-27T17:22:11.913Z,5.00
2022-09-27T17:24:40.494Z,3.85
2022-09-27T17:27:09.494Z,3.85
2022-09-27T17:29:40.341Z,4.10
2022-09-27T17:32:09.150Z,4.45
2022-09-27T17:34:43.905Z,5.53
2022-09-27T17:37:13.474Z,5.20
2022-09-27T17:39:42.304Z,4.65
2022-09-27T17:42:12.201Z,4.78
2022-09-27T17:44:42.528Z,5.47
2022-09-27T17:47:28.728Z,4.55
2022-09-27T17:50:14.437Z,5.90
2022-09-27T17:52:43.588Z,6.20
2022-09-27T17:55:12.213Z,5.47
2022-09-27T17:57:40.882Z,6.55
2022-09-27T18:00:12.890Z,7.63
2022-09-27T18:02:42.204Z,8.13
2022-09-27T18:05:11.104Z,7.18
2022-09-27T18:07:39.556Z,5.75
2022-09-27T18:10:09.555Z,5.38
2022-09-27T18:12:39.334Z,5.38
2022-09-27T18:15:09.185Z,4.68
2022-09-27T18:17:39.176Z,5.50
2022-09-27T18:20:08.160Z,4.95
2022-09-27T18:22:39.674Z,5.25
2022-09-27T18:25:09.120Z,4.68
2022-09-27T18:27:38.672Z,5.80
2022-09-27T18:30:09.982Z,5.50
2022-09-27T18:32:40.429Z,5.35
2022-09-27T18:35:09.223Z,6.30
2022-09-27T18:37:38.997Z,6.05
2022-09-27T18:40:08.554Z,6.65
2022-09-27T18:42:37.054Z,6.38
2022-09-27T18:45:06.516Z,5.30
2022-09-27T18:47:35.106Z,5.60
2022-09-27T18:50:05.724Z,6.65
2022-09-27T18:52:36.585Z,5.95
2022-09-27T18:55:06.988Z,6.18
2022-09-27T18:57:37.652Z,5.90
2022-09-27T19:00:08.916Z,5.22
2022-09-27T19:02:37.335Z,6.20
2022-09-27T19:05:09.138Z,5.05
2022-09-27T19:07:40.491Z,4.07
2022-09-27T19:10:10.384Z,4.60
2022-09-27T19:12:40.875Z,5.22
2022-09-27T19:15:11.713Z,4.97
2022-09-27T19:17:40.626Z,6.28
2022-09-27T19:20:12.707Z,6.00
2022-09-27T19:22:41.351Z,5.43
2022-09-27T19:25:11.895Z,5.75
2022-09-27T19:27:43.306Z,6.15
2022-09-27T19:30:13.913Z,6.25
2022-09-27T19:32:42.724Z,5.50
2022-09-27T19:35:14.945Z,4.80
2022-09-27T19:37:43.730Z,4.32
2022-09-27T19:40:12.530Z,5.00
2022-09-27T19:42:41.397Z,5.00
2022-09-27T19:45:12.818Z,5.05
2022-09-27T19:47:41.613Z,4.20
2022-09-27T19:50:11.235Z,5.53
2022-09-27T19:52:41.561Z,4.53
2022-09-27T19:55:11.441Z,5.60
2022-09-27T19:57:40.162Z,6.03
2022-09-27T20:00:10.330Z,6.57
2022-09-27T20:02:51.995Z,4.65
2022-09-27T20:05:22.046Z,4.78
2022-09-27T20:07:54.215Z,4.47
2022-09-27T20:10:22.670Z,3.28
2022-09-27T20:12:52.083Z,3.13
2022-09-27T20:15:21.421Z,3.72
2022-09-27T20:17:51.261Z,3.45
2022-09-27T20:20:20.855Z,3.72
2022-09-27T20:22:52.084Z,3.60
2022-09-27T20:25:20.746Z,3.72
2022-09-27T20:27:50.074Z,4.45
2022-09-27T20:30:19.013Z,3.83
2022-09-27T20:33:07.864Z,5.55
2022-09-27T20:35:37.350Z,4.68
2022-09-27T20:38:07.571Z,4.25
2022-09-27T20:40:36.563Z,5.47
2022-09-27T20:43:05.328Z,5.00
2022-09-27T20:45:35.904Z,6.43
2022-09-27T20:48:04.775Z,5.97
2022-09-27T20:50:34.007Z,3.88
2022-09-27T20:53:03.469Z,3.42
2022-09-27T20:55:36.015Z,3.10
2022-09-27T20:58:04.686Z,3.17
2022-09-27T21:00:37.258Z,3.55
2022-09-27T21:03:08.477Z,3.20
2022-09-27T21:05:37.090Z,3.20
2022-09-27T21:08:06.618Z,3.15
2022-09-27T21:10:36.745Z,3.60
2022-09-27T21:13:05.739Z,2.55
2022-09-27T21:15:34.550Z,2.45
2022-09-27T21:18:02.962Z,3.17
2022-09-27T21:20:32.012Z,2.70
2022-09-27T21:23:02.203Z,3.05
2022-09-27T21:25:30.632Z,2.60
2022-09-27T21:28:01.901Z,3.50
2022-09-27T21:30:30.385Z,3.35
2022-09-27T21:32:59.603Z,3.45
2022-09-27T21:35:28.997Z,3.33
2022-09-27T21:37:58.503Z,3.88
2022-09-27T21:40:28.183Z,3.85
2022-09-27T21:42:57.867Z,3.75
2022-09-27T21:45:34.888Z,4.60
2022-09-27T21:48:03.584Z,3.97
2022-09-27T21:50:32.920Z,3.83
2022-09-27T21:53:01.251Z,3.88
2022-09-27T21:55:31.138Z,3.60
2022-09-27T21:57:59.643Z,3.35
2022-09-27T22:00:28.332Z,3.42
2022-09-27T22:03:00.285Z,2.72
2022-09-27T22:05:29.948Z,2.70
2022-09-27T22:08:13.580Z,2.70
2022-09-27T22:10:42.331Z,2.83
2022-09-27T22:13:11.342Z,2.60
2022-09-27T22:15:41.678Z,2.85
2022-09-27T22:18:13.300Z,2.70
2022-09-27T22:20:43.585Z,3.00
2022-09-27T22:23:12.331Z,3.47
2022-09-27T22:25:41.899Z,3.03
2022-09-27T22:28:10.701Z,3.17
2022-09-27T22:30:40.109Z,3.75
2022-09-27T22:33:08.598Z,3.30
2022-09-27T22:35:47.675Z,2.92
2022-09-27T22:38:17.350Z,3.55
2022-09-27T22:40:54.824Z,3.70
2022-09-27T22:43:27.008Z,3.88
2022-09-27T22:45:55.688Z,3.75
2022-09-27T22:48:25.063Z,3.80
2022-09-27T22:50:58.439Z,4.10
2022-09-27T22:53:28.002Z,3.38
2022-09-27T22:56:04.808Z,3.35
2022-09-27T22:58:36.030Z,3.03
2022-09-27T23:01:09.916Z,3.88
2022-09-27T23:03:38.624Z,3.70
2022-09-27T23:06:09.827Z,3.08
2022-09-27T23:08:39.784Z,3.28
2022-09-27T23:11:10.614Z,4.30
2022-09-27T23:13:41.943Z,2.88
2022-09-27T23:16:12.760Z,3.25
2022-09-27T23:18:42.294Z,3.30
2022-09-27T23:21:15.980Z,2.78
2022-09-27T23:23:46.688Z,3.05
2022-09-27T23:26:17.929Z,2.83
2022-09-27T23:28:46.733Z,2.83
2022-09-27T23:31:18.967Z,3.10
2022-09-27T23:33:49.550Z,3.47
2022-09-27T23:36:22.751Z,4.13
2022-09-27T23:38:51.632Z,4.25
2022-09-27T23:41:21.392Z,4.47
2022-09-27T23:43:51.359Z,4.60
2022-09-27T23:46:26.014Z,4.13
2022-09-27T23:49:01.309Z,4.80
2022-09-27T23:51:31.221Z,5.90
2022-09-27T23:54:01.138Z,6.35
2022-09-27T23:56:29.612Z,5.88
2022-09-27T23:59:01.244Z,6.13
